20:39
Airports
Links
Donate
Help keep this website running!
PayPal
Bitcoin
METAR
DRZR 221800Z 00000KT CAVOK 32/21 Q1011
Current Weather Conditions at DRZR
VFR 18:00:00 22-09-17
Altimeter:29.85 hg
Temp:32.0°c 90°f
Dew point:21.0°c 70°f
Wind:0 knots, 0 mph, 0 m/s,
Variable direction
Visibility:6.21 statute miles
(CAVOK)
Past METAR reports
VFR 17:00:00 22-09-17
Altimeter:29.85 hg
Temp:34.0°c 93°f
Dew point:21.0°c 70°f
Wind:4 knots, 4.6 mph, 2 m/s, from 280°
Visibility:6.21 statute miles
5000(FEW) A few
4000(FEW) A few
DRZR 221700Z 28004KT 9999 FEW040 FEW050CB 34/21 Q1011
VFR 16:00:00 22-09-17
Altimeter:29.85 hg
Temp:35.0°c 95°f
Dew point:20.0°c 68°f
Wind:4 knots, 4.6 mph, 2 m/s, from 240°
Visibility:6.21 statute miles
5000(FEW) A few
4000(FEW) A few
DRZR 221600Z 24004KT 9999 FEW040 FEW050CB 35/20 Q1011
VFR 15:00:00 22-09-17
Altimeter:29.85 hg
Temp:35.0°c 95°f
Dew point:21.0°c 70°f
Wind:4 knots, 4.6 mph, 2 m/s, from 260°
Visibility:6.21 statute miles
4000(FEW) A few
DRZR 221500Z 26004KT 9999 FEW040 35/21 Q1011
TAF
TAF DRZR 221700Z 2218/2318 26006KT 9999 FEW040 PROB40 TEMPO 2218/2222 TS FEW040CB
Forecast at DRZR
18:00 22-09-17 to 18:00 23-09-17
Wind:6 Knots from 260°
Visibility:6.21 statute miles
4000FEW A few
TEMPO 18:00 22-09-17 to 22:00 22-09-17
40% TS
4000FEW A few